Time;durP1;ratioP1;P1;durP2;ratioP2;P2;SDS_P1;SDS_P2;PMS_P1;PMS_P2;Temp;Humidity;BMP_temperature;BMP_pressure;BME280_temperature;BME280_humidity;BME280_pressure;Samples;Min_cycle;Max_cycle;Signal;HPM_P1;HPM_P2
2022/01/11 00:01:26;;;;;;;51.67;20.67;;;;;;;-0.75;100.00;103020.03;4977243;28;20465;-79
2022/01/11 00:03:52;;;;;;;30.50;20.80;;;;;;;-0.62;100.00;103030.00;4977071;28;20185;-79
2022/01/11 00:09:31;;;;;;;24.90;20.10;;;;;;;-0.62;100.00;103022.94;4962464;28;20861;-77
2022/01/11 00:11:56;;;;;;;24.30;19.53;;;;;;;-0.43;100.00;103028.19;4981189;28;20985;-78
2022/01/11 00:14:22;;;;;;;23.70;19.93;;;;;;;-1.24;100.00;102882.72;4978771;28;20461;-78
2022/01/11 00:16:47;;;;;;;83.27;19.40;;;;;;;-0.15;100.00;103103.34;4981821;28;20202;-77
2022/01/11 00:19:14;;;;;;;25.73;21.13;;;;;;;-0.18;100.00;103088.50;4979896;28;20213;-76
2022/01/11 00:21:45;;;;;;;99.67;21.63;;;;;;;-0.68;100.00;103042.53;4979940;28;20709;-77
2022/01/11 00:24:28;;;;;;;77.03;20.70;;;;;;;-0.17;100.00;103136.84;4972754;28;20806;-79
2022/01/11 00:26:55;;;;;;;75.40;20.60;;;;;;;-0.19;100.00;103146.63;4979829;28;20475;-83
2022/01/11 00:29:21;;;;;;;38.43;19.80;;;;;;;-0.78;100.00;103030.72;4975001;28;20448;-84
2022/01/11 00:31:47;;;;;;;22.60;19.67;;;;;;;-0.20;100.00;103055.22;4977122;28;20460;-82
2022/01/11 00:34:15;;;;;;;26.60;18.20;;;;;;;-0.89;100.00;102980.28;4977278;28;20185;-83
2022/01/11 00:36:42;;;;;;;22.40;19.67;;;;;;;-0.44;100.00;103089.75;4981208;28;20444;-84
2022/01/11 00:39:08;;;;;;;24.83;18.63;;;;;;;-0.67;100.00;103040.75;4975890;28;20943;-83
2022/01/11 00:41:37;;;;;;;19.97;16.93;;;;;;;0.12;100.00;103148.66;4973350;28;20465;-81
2022/01/11 00:44:02;;;;;;;20.53;18.30;;;;;;;-0.12;100.00;103100.56;4975649;28;20449;-79
2022/01/11 00:46:28;;;;;;;25.27;18.57;;;;;;;-0.14;100.00;103128.81;4975905;28;20460;-77
2022/01/11 00:48:53;;;;;;;19.97;17.77;;;;;;;-0.12;100.00;103116.38;4979926;28;20673;-77
2022/01/11 00:51:19;;;;;;;19.87;16.83;;;;;;;-0.32;100.00;103061.94;4980073;28;20213;-77
2022/01/11 00:53:44;;;;;;;20.60;16.35;;;;;;;0.05;100.00;103166.56;4979160;28;20666;-78
2022/01/11 00:56:09;;;;;;;17.77;15.33;;;;;;;-0.02;100.00;103168.66;4978498;28;20197;-81
2022/01/11 00:58:35;;;;;;;19.43;16.47;;;;;;;0.03;100.00;103172.84;4977516;28;20754;-81
2022/01/11 01:01:00;;;;;;;19.00;16.43;;;;;;;-0.91;100.00;103026.94;4972732;28;20256;-80
2022/01/11 01:03:26;;;;;;;20.80;16.13;;;;;;;0.05;100.00;103165.72;4978808;28;20194;-79
2022/01/11 01:05:53;;;;;;;22.10;16.83;;;;;;;-0.08;100.00;103165.44;4975544;28;20598;-81
2022/01/11 01:08:19;;;;;;;43.67;17.77;;;;;;;-0.82;100.00;103049.38;4980073;28;20581;-80
2022/01/11 01:10:47;;;;;;;24.60;17.33;;;;;;;-0.09;100.00;103166.34;4979769;28;20628;-80
2022/01/11 01:13:17;;;;;;;19.10;17.00;;;;;;;-0.17;100.00;103174.66;4978753;28;20213;-82
2022/01/11 01:15:47;;;;;;;17.87;15.70;;;;;;;-0.59;100.00;103098.38;4974180;28;20737;-79
2022/01/11 01:18:15;;;;;;;17.40;15.07;;;;;;;-0.11;100.00;103149.78;4974555;28;20515;-79
2022/01/11 01:20:41;;;;;;;17.00;14.00;;;;;;;-0.19;100.00;103192.31;4979282;28;20457;-80
2022/01/11 01:23:06;;;;;;;19.43;17.17;;;;;;;-1.17;100.00;102991.25;4975531;28;20475;-78
2022/01/11 01:25:32;;;;;;;21.93;16.00;;;;;;;-0.01;100.00;103182.69;4974086;28;20579;-79
2022/01/11 01:27:57;;;;;;;16.83;15.03;;;;;;;-2.05;100.00;102874.09;4980020;28;20854;-80
2022/01/11 01:30:23;;;;;;;17.70;15.80;;;;;;;0.11;100.00;103200.56;4975858;28;20332;-79
2022/01/11 01:32:50;;;;;;;28.10;16.10;;;;;;;-0.78;100.00;103106.25;4976353;28;20280;-78
2022/01/11 01:35:16;;;;;;;16.70;14.50;;;;;;;-0.39;100.00;103187.13;4979062;28;20232;-80
2022/01/11 01:37:42;;;;;;;18.37;14.53;;;;;;;-0.56;100.00;103116.69;4977131;28;20451;-78
2022/01/11 01:40:08;;;;;;;22.43;14.00;;;;;;;-0.44;100.00;103208.41;4974091;28;20476;-80
2022/01/11 01:42:34;;;;;;;17.30;14.30;;;;;;;-0.44;100.00;103203.13;4979148;28;20280;-81
2022/01/11 01:45:02;;;;;;;15.83;13.70;;;;;;;-1.17;100.00;103055.28;4978113;28;20463;-80
2022/01/11 01:47:27;;;;;;;19.13;14.57;;;;;;;-0.34;100.00;103207.06;4975971;28;20444;-82
2022/01/11 01:49:53;;;;;;;14.77;13.20;;;;;;;-2.21;100.00;102909.00;4973116;28;21012;-79
2022/01/11 01:52:19;;;;;;;16.10;14.37;;;;;;;-0.61;100.00;103210.94;4976500;28;20577;-81
2022/01/11 01:54:45;;;;;;;29.17;15.03;;;;;;;-1.68;100.00;103000.50;4977268;28;20467;-83
2022/01/11 01:57:11;;;;;;;16.27;14.53;;;;;;;-2.19;100.00;102879.09;4979292;28;20643;-82
2022/01/11 01:59:36;;;;;;;23.70;15.17;;;;;;;-0.72;100.00;103162.22;4976750;28;20531;-83
2022/01/11 02:02:02;;;;;;;16.80;14.70;;;;;;;-0.74;100.00;103142.97;4980505;28;21003;-82
2022/01/11 02:04:28;;;;;;;43.93;14.17;;;;;;;-0.68;100.00;103181.38;4975638;28;20810;-82
2022/01/11 02:06:54;;;;;;;15.20;13.67;;;;;;;-1.64;100.00;102976.66;4974419;28;20455;-81
2022/01/11 02:09:19;;;;;;;15.97;13.00;;;;;;;-1.40;100.00;103073.88;4972746;28;20188;-80
2022/01/11 02:11:47;;;;;;;13.93;12.50;;;;;;;-0.70;100.00;103167.38;4978394;28;20209;-84
2022/01/11 02:14:13;;;;;;;15.37;13.80;;;;;;;-1.91;100.00;102973.44;4976326;28;20201;-78
2022/01/11 02:16:38;;;;;;;15.23;13.63;;;;;;;-1.20;100.00;103037.00;4973013;28;20511;-81
2022/01/11 02:19:04;;;;;;;18.93;14.20;;;;;;;-0.12;100.00;103220.13;4976563;28;20476;-80
2022/01/11 02:21:30;;;;;;;32.90;13.90;;;;;;;-0.71;100.00;103169.19;4974228;28;20843;-79
2022/01/11 02:23:57;;;;;;;16.10;13.37;;;;;;;-2.11;100.00;102953.25;4975009;28;20450;-83
2022/01/11 02:26:23;;;;;;;14.07;12.40;;;;;;;-2.13;100.00;102920.03;4974900;28;20206;-81
2022/01/11 02:28:48;;;;;;;15.67;13.53;;;;;;;-0.57;100.00;103191.44;4975858;28;20440;-79
2022/01/11 02:31:14;;;;;;;23.40;13.00;;;;;;;-1.88;100.00;103035.56;4974884;28;20425;-81
2022/01/11 02:33:43;;;;;;;36.77;13.60;;;;;;;-0.79;100.00;103233.69;4974571;28;20197;-83
2022/01/11 02:36:13;;;;;;;15.73;13.50;;;;;;;-1.56;100.00;103038.59;4971282;28;20213;-78
2022/01/11 02:38:39;;;;;;;44.10;13.63;;;;;;;-0.50;100.00;103235.91;4978950;28;20472;-83
2022/01/11 02:41:04;;;;;;;18.87;14.20;;;;;;;-1.85;100.00;102965.28;4968719;28;21042;-82
2022/01/11 02:43:30;;;;;;;15.27;13.70;;;;;;;-0.57;100.00;103230.97;4976450;28;20190;-81
2022/01/11 02:45:58;;;;;;;14.50;12.90;;;;;;;-1.25;100.00;103106.59;4974704;28;20222;-81
2022/01/11 02:48:24;;;;;;;41.43;14.13;;;;;;;-0.92;100.00;103159.59;4977188;28;20927;-84
2022/01/11 02:50:49;;;;;;;15.57;13.57;;;;;;;-0.61;100.00;103235.50;4981010;28;20559;-83
2022/01/11 02:53:15;;;;;;;16.33;14.60;;;;;;;-1.20;100.00;103150.25;4979010;28;20197;-84
2022/01/11 02:55:41;;;;;;;17.30;14.43;;;;;;;-1.11;100.00;103114.75;4978434;28;20204;-82
2022/01/11 02:58:07;;;;;;;18.47;14.07;;;;;;;-0.79;100.00;103163.38;4981389;28;20189;-80
2022/01/11 03:00:33;;;;;;;17.10;13.00;;;;;;;-1.19;100.00;103098.41;4978421;28;20464;-83
2022/01/11 03:03:28;;;;;;;15.03;13.30;;;;;;;-0.61;100.00;103190.69;4977133;28;20437;-81
2022/01/11 03:05:58;;;;;;;15.13;13.20;;;;;;;-0.33;100.00;103229.88;4965452;28;20552;-81
2022/01/11 03:08:26;;;;;;;15.07;13.40;;;;;;;-0.43;100.00;103233.88;4980762;28;20433;-83
2022/01/11 03:10:52;;;;;;;16.70;13.57;;;;;;;-1.22;100.00;103080.13;4982659;28;21602;-83
2022/01/11 03:13:18;;;;;;;30.17;12.93;;;;;;;-0.29;100.00;103220.91;4983930;28;20448;-80
2022/01/11 03:15:45;;;;;;;13.80;12.47;;;;;;;-1.23;100.00;103108.22;4979373;28;20543;-82
2022/01/11 03:18:11;;;;;;;18.77;13.10;;;;;;;-0.52;100.00;103229.84;4982211;28;20534;-79
2022/01/11 03:20:38;;;;;;;14.43;12.53;;;;;;;-1.03;100.00;103114.41;4981022;28;21057;-79
2022/01/11 03:23:04;;;;;;;14.50;12.60;;;;;;;-0.32;100.00;103225.44;4979054;28;20444;-81
2022/01/11 03:25:30;;;;;;;14.00;12.53;;;;;;;-0.74;100.00;103103.44;4974990;28;20960;-80
2022/01/11 03:27:55;;;;;;;14.00;12.60;;;;;;;-0.03;100.00;103221.47;4974688;28;20445;-80
2022/01/11 03:30:21;;;;;;;23.90;12.87;;;;;;;-0.28;100.00;103229.69;4979141;28;20776;-77
2022/01/11 03:32:47;;;;;;;15.53;12.27;;;;;;;-0.45;100.00;103219.88;4980683;28;20200;-81
2022/01/11 03:35:13;;;;;;;12.67;11.37;;;;;;;-1.18;100.00;103166.84;4976860;28;20671;-82
2022/01/11 03:37:40;;;;;;;20.33;11.77;;;;;;;-0.84;100.00;103181.19;4977407;28;20452;-82
2022/01/11 03:40:09;;;;;;;14.13;12.20;;;;;;;-1.59;100.00;103100.16;4976091;28;20473;-81
2022/01/11 03:42:35;;;;;;;13.53;12.10;;;;;;;-2.08;100.00;102986.44;4977805;28;20965;-78
2022/01/11 03:45:00;;;;;;;21.23;13.57;;;;;;;-1.03;100.00;103140.75;4977775;28;20530;-81
2022/01/11 03:47:26;;;;;;;15.00;13.00;;;;;;;-0.84;100.00;103202.28;4978880;28;20245;-82
2022/01/11 03:49:51;;;;;;;17.33;12.90;;;;;;;-2.52;100.00;102992.59;4978138;28;20727;-83
2022/01/11 03:52:17;;;;;;;13.93;12.53;;;;;;;-0.89;100.00;103161.25;4978137;28;20424;-82
2022/01/11 03:55:04;;;;;;;33.73;14.40;;;;;;;-1.30;100.00;103167.38;4978472;28;20561;-82
2022/01/11 03:57:29;;;;;;;13.30;11.90;;;;;;;-0.79;100.00;103228.41;4977222;28;20189;-79
2022/01/11 03:59:56;;;;;;;13.83;12.23;;;;;;;-0.96;100.00;103195.72;4974907;28;21020;-78
2022/01/11 04:02:22;;;;;;;15.63;11.93;;;;;;;-0.85;100.00;103175.97;4974376;28;20444;-79
2022/01/11 04:04:52;;;;;;;18.67;12.57;;;;;;;-0.92;100.00;103168.34;4971902;28;20461;-83
2022/01/11 04:07:23;;;;;;;14.87;13.30;;;;;;;-1.79;100.00;103019.41;4995874;28;20433;-82
2022/01/11 04:09:50;;;;;;;14.07;12.40;;;;;;;-2.25;100.00;102923.19;4979816;28;20444;-79
2022/01/11 04:12:16;;;;;;;16.20;13.20;;;;;;;-2.05;100.00;102960.03;4979282;28;20476;-81
2022/01/11 04:14:42;;;;;;;14.57;12.50;;;;;;;-0.37;100.00;103230.09;4980385;28;20445;-82
2022/01/11 04:17:08;;;;;;;18.97;13.00;;;;;;;-2.49;100.00;102928.53;4977037;28;21343;-81
2022/01/11 04:19:33;;;;;;;16.60;12.80;;;;;;;-1.25;100.00;103141.66;4976642;28;20527;-81
2022/01/11 04:21:59;;;;;;;16.43;13.50;;;;;;;-0.94;100.00;103145.63;4976426;28;21614;-78
2022/01/11 04:24:26;;;;;;;15.07;13.53;;;;;;;-0.41;100.00;103228.50;4983785;28;20269;-77
2022/01/11 04:26:51;;;;;;;16.10;13.53;;;;;;;-0.26;100.00;103198.78;4977621;28;20189;-78
2022/01/11 04:29:17;;;;;;;15.00;13.40;;;;;;;-1.78;100.00;102986.06;4973013;28;20445;-77
2022/01/11 04:31:43;;;;;;;17.40;13.63;;;;;;;-2.30;100.00;102911.09;4980398;28;21408;-78
2022/01/11 04:34:08;;;;;;;15.93;13.00;;;;;;;-2.26;100.00;102956.50;4979978;28;20969;-79
2022/01/11 04:36:34;;;;;;;18.23;15.67;;;;;;;-1.73;100.00;103061.25;4974259;28;20190;-78
2022/01/11 04:39:00;;;;;;;18.23;14.27;;;;;;;-1.35;100.00;103044.75;4978469;28;20217;-79
2022/01/11 04:41:26;;;;;;;17.53;14.17;;;;;;;-0.89;100.00;103134.91;4977684;28;21117;-77
2022/01/11 04:43:52;;;;;;;16.43;14.17;;;;;;;-0.76;100.00;103143.94;4974478;28;20444;-77
2022/01/11 04:46:18;;;;;;;17.23;13.93;;;;;;;-0.27;100.00;103219.03;4976331;28;20185;-78
2022/01/11 04:48:47;;;;;;;16.70;13.97;;;;;;;0.00;100.00;103213.44;4980837;28;20340;-78
2022/01/11 04:51:13;;;;;;;16.63;14.37;;;;;;;-0.01;100.00;103225.75;4973471;28;20476;-76
2022/01/11 04:53:38;;;;;;;17.80;13.60;;;;;;;-0.18;100.00;103167.66;4975892;28;20449;-76
2022/01/11 04:56:04;;;;;;;16.10;14.07;;;;;;;-0.06;100.00;103161.81;4977486;28;20989;-76
2022/01/11 04:58:30;;;;;;;16.27;12.50;;;;;;;-0.12;100.00;103172.63;4977450;28;20201;-77
2022/01/11 05:00:55;;;;;;;15.50;12.13;;;;;;;-0.38;100.00;103101.78;4971030;28;20468;-76
2022/01/11 05:03:21;;;;;;;13.70;12.27;;;;;;;-1.63;100.00;102938.88;4979014;28;20191;-76
2022/01/11 05:05:47;;;;;;;16.47;12.70;;;;;;;-1.72;100.00;102981.38;4974573;28;20367;-76
2022/01/11 05:08:13;;;;;;;14.33;11.90;;;;;;;-0.20;100.00;103205.56;4977533;28;20221;-78
2022/01/11 05:10:42;;;;;;;15.60;12.77;;;;;;;-2.56;100.00;102898.19;4973890;28;20464;-76
2022/01/11 05:13:12;;;;;;;14.60;13.10;;;;;;;-1.87;100.00;102967.13;4975498;28;20456;-78
2022/01/11 05:15:39;;;;;;;15.17;12.20;;;;;;;-1.03;100.00;103045.94;4976742;28;20855;-76
2022/01/11 05:18:06;;;;;;;15.77;12.57;;;;;;;-1.83;100.00;102913.44;4975202;28;20439;-76
2022/01/11 05:20:31;;;;;;;13.00;11.40;;;;;;;-1.07;100.00;103061.03;4977862;28;20562;-76
2022/01/11 05:22:57;;;;;;;14.90;12.43;;;;;;;-1.38;100.00;103061.50;4974987;28;20437;-77
2022/01/11 05:25:22;;;;;;;14.53;12.03;;;;;;;-0.09;100.00;103198.00;4974059;28;20564;-76
2022/01/11 05:27:48;;;;;;;14.63;12.50;;;;;;;-1.12;100.00;103025.28;4975327;28;20193;-75
2022/01/11 05:30:13;;;;;;;15.73;13.23;;;;;;;-2.15;100.00;102924.50;4977352;28;20519;-77
2022/01/11 05:32:41;;;;;;;15.47;12.67;;;;;;;-1.63;100.00;103001.19;4974728;28;20209;-80
2022/01/11 05:35:08;;;;;;;20.43;12.20;;;;;;;-1.86;100.00;102986.38;4977783;28;20181;-77
2022/01/11 05:37:33;;;;;;;16.00;13.60;;;;;;;-0.76;100.00;103136.88;4972845;28;20447;-80
2022/01/11 05:39:59;;;;;;;15.83;12.87;;;;;;;-1.72;100.00;103006.84;4977946;28;20465;-79
2022/01/11 05:42:25;;;;;;;18.40;13.43;;;;;;;-1.09;100.00;103141.03;4972421;28;20209;-77
2022/01/11 05:44:51;;;;;;;20.50;14.03;;;;;;;-1.53;100.00;103110.41;4977526;28;20193;-83
2022/01/11 05:47:17;;;;;;;17.40;13.20;;;;;;;-2.08;100.00;103018.84;4972670;28;20448;-82
2022/01/11 05:49:43;;;;;;;17.80;13.10;;;;;;;-1.87;100.00;103043.41;4972127;28;20190;-83
2022/01/11 05:52:08;;;;;;;17.57;13.47;;;;;;;-0.95;100.00;103201.88;4973288;28;20221;-82
2022/01/11 05:54:34;;;;;;;20.20;13.80;;;;;;;-1.22;100.00;103148.59;4978849;28;20494;-81
2022/01/11 05:57:00;;;;;;;17.60;13.00;;;;;;;-0.59;100.00;103209.09;4974961;28;20676;-80
2022/01/11 05:59:25;;;;;;;21.30;14.70;;;;;;;-0.97;100.00;103125.53;4977642;28;20587;-81
2022/01/11 06:01:51;;;;;;;18.10;13.27;;;;;;;-1.74;100.00;103025.31;4972136;28;20457;-81
2022/01/11 06:04:16;;;;;;;15.30;12.57;;;;;;;-1.45;100.00;103108.28;4970079;28;20186;-75
2022/01/11 06:06:42;;;;;;;19.23;13.23;;;;;;;-0.96;100.00;103208.06;4974976;28;20639;-79
2022/01/11 06:09:07;;;;;;;20.30;14.30;;;;;;;-2.77;100.00;102950.66;4976363;28;20216;-78
2022/01/11 06:11:33;;;;;;;17.37;13.00;;;;;;;-1.74;100.00;103106.88;4974616;28;20701;-80
2022/01/11 06:13:58;;;;;;;19.60;14.90;;;;;;;-2.54;100.00;102955.00;4980635;28;20216;-81
2022/01/11 06:16:24;;;;;;;21.57;14.30;;;;;;;-0.88;100.00;103261.28;4969118;28;20193;-80
2022/01/11 06:18:50;;;;;;;21.27;13.77;;;;;;;-2.76;100.00;102939.22;4976129;28;20350;-83
2022/01/11 06:21:15;;;;;;;18.20;13.63;;;;;;;-1.76;100.00;103144.72;4974217;28;20228;-79
2022/01/11 06:23:41;;;;;;;17.93;14.10;;;;;;;-2.29;100.00;103028.44;4976124;28;20186;-80
2022/01/11 06:26:07;;;;;;;19.40;14.07;;;;;;;-2.49;100.00;102996.84;4967097;28;20221;-83
2022/01/11 06:28:33;;;;;;;21.33;14.67;;;;;;;-0.97;100.00;103174.75;4975268;28;20186;-77
2022/01/11 06:30:58;;;;;;;18.10;13.27;;;;;;;-1.60;100.00;103072.94;4976539;28;20725;-77
2022/01/11 06:33:24;;;;;;;17.73;14.47;;;;;;;-0.89;100.00;103206.03;4965902;28;20519;-77
2022/01/11 06:35:50;;;;;;;19.00;13.63;;;;;;;-1.09;100.00;103197.19;4974851;28;25570;-78
2022/01/11 06:38:16;;;;;;;19.00;13.67;;;;;;;-0.88;100.00;103213.84;4965198;28;20653;-79
2022/01/11 06:40:42;;;;;;;23.57;15.00;;;;;;;-1.29;100.00;103170.84;4973018;28;20989;-78
2022/01/11 06:43:07;;;;;;;18.83;14.53;;;;;;;-1.17;100.00;103176.44;4970474;28;20213;-79
2022/01/11 06:45:36;;;;;;;22.10;14.60;;;;;;;-2.08;100.00;102991.72;4971830;28;20506;-81
2022/01/11 06:48:02;;;;;;;18.13;14.17;;;;;;;-0.81;100.00;103259.25;4965746;28;20201;-78
2022/01/11 06:50:28;;;;;;;54.60;15.83;;;;;;;-1.94;100.00;103138.41;4966439;28;20865;-77
2022/01/11 06:52:53;;;;;;;19.63;15.23;;;;;;;-1.73;100.00;103136.69;4956894;28;20503;-80
2022/01/11 06:55:19;;;;;;;20.70;13.87;;;;;;;-2.66;100.00;103000.16;4960994;28;20276;-81
2022/01/11 06:57:46;;;;;;;17.60;13.80;;;;;;;-1.77;100.00;103093.00;4968029;28;20193;-78
2022/01/11 07:00:12;;;;;;;21.67;14.83;;;;;;;-2.45;100.00;103034.41;4957235;28;20414;-75
2022/01/11 07:02:37;;;;;;;29.73;15.40;;;;;;;-0.88;100.00;103271.81;4963011;28;20547;-77
2022/01/11 07:05:04;;;;;;;20.97;15.00;;;;;;;-1.38;100.00;103185.25;4966082;28;20440;-75
2022/01/11 07:07:29;;;;;;;24.50;16.40;;;;;;;-1.60;100.00;103180.00;4963201;28;20698;-76
2022/01/11 07:09:55;;;;;;;24.67;15.60;;;;;;;-1.37;100.00;103166.75;4972095;28;21710;-79
2022/01/11 07:12:20;;;;;;;24.93;16.83;;;;;;;-1.55;100.00;103127.19;4977777;28;20194;-77
2022/01/11 07:14:46;;;;;;;23.30;17.13;;;;;;;-1.51;100.00;103162.97;4983292;28;20186;-80
2022/01/11 07:17:11;;;;;;;21.97;15.70;;;;;;;-0.87;100.00;103276.16;4975654;28;20208;-77
2022/01/11 07:19:37;;;;;;;22.53;15.97;;;;;;;-1.79;100.00;103122.03;4976627;28;20640;-80
2022/01/11 07:22:03;;;;;;;21.80;15.50;;;;;;;-0.54;100.00;103271.25;4969747;28;20374;-76
2022/01/11 07:24:28;;;;;;;25.23;16.83;;;;;;;-0.72;100.00;103293.97;4975755;28;21065;-79
2022/01/11 07:26:55;;;;;;;22.70;16.17;;;;;;;-0.69;100.00;103275.41;4979355;28;20193;-79
2022/01/11 07:29:20;;;;;;;21.00;15.47;;;;;;;-0.98;100.00;103246.81;4978350;28;20681;-80
2022/01/11 07:31:46;;;;;;;23.80;16.13;;;;;;;-0.80;100.00;103288.19;4971231;28;20464;-80
2022/01/11 07:34:11;;;;;;;24.43;16.70;;;;;;;-1.62;100.00;103168.66;4975395;28;20194;-82
2022/01/11 07:36:38;;;;;;;25.77;16.17;;;;;;;-0.95;100.00;103259.84;4975724;28;20205;-79
2022/01/11 07:39:06;;;;;;;23.33;16.23;;;;;;;-1.11;100.00;103272.78;4973606;28;20205;-78
2022/01/11 07:41:31;;;;;;;27.67;15.60;;;;;;;-1.17;100.00;103237.00;4967668;28;21025;-78
2022/01/11 07:43:57;;;;;;;90.03;16.70;;;;;;;-1.55;100.00;103209.63;4977353;28;20544;-79
2022/01/11 07:46:23;;;;;;;32.03;16.03;;;;;;;-0.65;100.00;103297.22;4974625;28;20188;-78
2022/01/11 07:48:49;;;;;;;28.53;18.30;;;;;;;-0.66;100.00;103292.88;4972793;28;20186;-82
2022/01/11 07:51:15;;;;;;;31.53;18.17;;;;;;;-0.85;100.00;103266.41;4978999;28;20491;-81
2022/01/11 07:53:40;;;;;;;30.00;19.87;;;;;;;-1.30;100.00;103203.34;4976206;28;20441;-82
2022/01/11 07:56:06;;;;;;;28.93;20.27;;;;;;;-0.37;100.00;103291.59;4979558;28;20193;-82
2022/01/11 07:58:31;;;;;;;32.90;19.60;;;;;;;-1.58;100.00;103143.97;4972632;28;20268;-78
2022/01/11 08:00:57;;;;;;;64.90;20.57;;;;;;;-1.20;100.00;103231.88;4978356;28;20213;-83
2022/01/11 08:03:22;;;;;;;33.87;20.97;;;;;;;-0.98;100.00;103268.72;4967324;28;21320;-85
2022/01/11 08:05:48;;;;;;;36.10;20.97;;;;;;;-1.34;100.00;103157.88;4968216;28;20700;-82
2022/01/11 08:08:13;;;;;;;32.30;21.20;;;;;;;-0.65;100.00;103317.44;4980683;28;20194;-81
2022/01/11 08:10:38;;;;;;;33.90;21.50;;;;;;;-1.40;100.00;103166.88;4975387;28;20248;-80
2022/01/11 08:13:08;;;;;;;31.33;19.83;;;;;;;-0.96;100.00;103229.97;4963182;28;20193;-81
2022/01/11 08:15:34;;;;;;;38.50;19.83;;;;;;;-0.52;100.00;103294.88;4972048;28;20193;-82
2022/01/11 08:17:59;;;;;;;30.87;19.63;;;;;;;-0.86;100.00;103211.16;4967191;28;20454;-82
2022/01/11 08:20:25;;;;;;;30.97;20.10;;;;;;;-0.45;100.00;103285.81;4965475;28;20488;-79
2022/01/11 08:22:53;;;;;;;32.77;18.73;;;;;;;-0.35;100.00;103302.06;4977423;28;20197;-82
2022/01/11 08:25:20;;;;;;;32.30;20.80;;;;;;;-0.43;100.00;103304.19;4977676;28;20697;-82
2022/01/11 08:27:46;;;;;;;31.37;22.50;;;;;;;-0.51;100.00;103305.38;4974474;28;20568;-83
2022/01/11 08:30:12;;;;;;;31.90;19.97;;;;;;;-0.44;100.00;103311.22;4976425;28;20472;-81
2022/01/11 08:32:37;;;;;;;34.77;20.90;;;;;;;-0.57;100.00;103284.56;4962978;28;21021;-81
2022/01/11 08:35:03;;;;;;;34.23;21.07;;;;;;;-0.49;100.00;103300.06;4968731;28;20232;-80
2022/01/11 08:37:29;;;;;;;32.80;20.60;;;;;;;-0.33;100.00;103305.50;4976064;28;21239;-83
2022/01/11 08:39:54;;;;;;;38.67;22.50;;;;;;;-1.10;100.00;103166.50;4978505;28;20464;-83
2022/01/11 08:42:20;;;;;;;31.70;21.30;;;;;;;-0.97;100.00;103180.00;4979099;28;20202;-81
2022/01/11 08:44:47;;;;;;;37.17;21.43;;;;;;;-0.19;100.00;103315.44;4979858;28;20185;-82
2022/01/11 08:47:16;;;;;;;40.33;23.73;;;;;;;-2.16;100.00;103026.19;4977352;28;20235;-81
2022/01/11 08:49:42;;;;;;;34.67;20.63;;;;;;;-0.14;100.00;103316.97;4976112;28;20506;-82
2022/01/11 08:52:08;;;;;;;37.90;23.13;;;;;;;0.13;100.00;103321.91;4978286;28;20469;-81
2022/01/11 08:54:33;;;;;;;37.53;23.40;;;;;;;-0.91;100.00;103214.00;4973587;28;20197;-81
2022/01/11 08:56:59;;;;;;;41.67;24.37;;;;;;;-0.10;100.00;103310.59;4977212;28;20452;-86
2022/01/11 08:59:28;;;;;;;40.50;22.03;;;;;;;-0.33;100.00;103289.69;4970437;28;20213;-85
2022/01/11 09:01:59;;;;;;;33.40;21.93;;;;;;;-0.65;100.00;103233.94;4965217;28;21032;-83
2022/01/11 09:04:27;;;;;;;39.40;23.17;;;;;;;-0.82;100.00;103215.38;4963424;28;20893;-84
2022/01/11 09:06:53;;;;;;;35.30;22.17;;;;;;;-0.19;100.00;103279.38;4973000;23;20507;-78
2022/01/11 09:09:19;;;;;;;38.50;22.30;;;;;;;0.07;100.00;103320.41;4958305;28;20486;-81
2022/01/11 09:11:46;;;;;;;38.47;23.60;;;;;;;0.16;100.00;103309.44;4956929;28;20459;-79
2022/01/11 09:14:12;;;;;;;36.70;22.87;;;;;;;0.04;100.00;103310.00;4975063;28;20453;-80
2022/01/11 09:16:38;;;;;;;32.20;21.70;;;;;;;-0.92;100.00;103170.13;4961486;28;21020;-78
2022/01/11 09:19:04;;;;;;;35.60;22.00;;;;;;;-1.12;100.00;103113.03;4978885;28;20614;-77
2022/01/11 09:21:31;;;;;;;35.17;22.27;;;;;;;0.17;100.00;103305.88;4968674;28;20446;-79
2022/01/11 09:23:57;;;;;;;34.83;21.90;;;;;;;-0.23;100.00;103248.78;4958084;28;20200;-81
2022/01/11 09:26:23;;;;;;;33.63;22.53;;;;;;;-0.49;100.00;103199.88;4976216;28;20457;-78
2022/01/11 09:28:48;;;;;;;39.27;23.07;;;;;;;-0.05;100.00;103281.41;4968420;28;20476;-76
2022/01/11 09:31:14;;;;;;;30.67;19.90;;;;;;;-0.60;100.00;103191.56;4965582;28;20273;-74
2022/01/11 09:33:39;;;;;;;33.07;20.83;;;;;;;-0.59;100.00;103195.91;4969332;28;20555;-77
2022/01/11 09:36:05;;;;;;;36.80;21.43;;;;;;;-0.10;100.00;103309.75;4963885;28;20182;-77
2022/01/11 09:38:31;;;;;;;40.87;23.23;;;;;;;0.05;100.00;103319.63;4958974;28;20280;-77
2022/01/11 09:40:58;;;;;;;37.53;21.50;;;;;;;0.15;100.00;103328.84;4970694;28;21053;-77
2022/01/11 09:43:25;;;;;;;36.30;20.80;;;;;;;-0.02;100.00;103287.38;4973256;28;20186;-76
2022/01/11 09:45:52;;;;;;;35.87;22.30;;;;;;;0.10;100.00;103319.41;4957950;28;20810;-77
2022/01/11 09:48:23;;;;;;;36.63;21.93;;;;;;;-0.55;100.00;103215.94;4975436;28;20560;-77
2022/01/11 09:50:48;;;;;;;36.87;21.50;;;;;;;0.38;100.00;103303.16;4982659;28;20444;-77
2022/01/11 09:53:14;;;;;;;39.47;21.47;;;;;;;0.12;100.00;103333.41;4980410;28;20448;-77
2022/01/11 09:55:39;;;;;;;35.60;22.50;;;;;;;-0.06;100.00;103279.66;4974119;28;20259;-76
2022/01/11 09:58:05;;;;;;;34.83;20.20;;;;;;;0.08;100.00;103326.53;4984110;28;20197;-79
2022/01/11 10:00:31;;;;;;;35.93;21.00;;;;;;;-0.34;100.00;103251.91;4974109;28;20205;-76
2022/01/11 10:02:57;;;;;;;29.90;19.93;;;;;;;0.00;100.00;103316.34;4960623;28;20848;-76
2022/01/11 10:05:24;;;;;;;37.87;22.90;;;;;;;0.21;100.00;103311.88;4978246;28;20536;-76
2022/01/11 10:07:50;;;;;;;39.27;20.73;;;;;;;0.02;100.00;103289.88;4958217;28;20492;-75
2022/01/11 10:10:24;;;;;;;37.13;21.73;;;;;;;-0.14;100.00;103263.34;4978372;28;20576;-75
2022/01/11 10:12:58;;;;;;;35.87;22.43;;;;;;;-0.56;100.00;103172.91;4980880;28;20446;-76
2022/01/11 10:15:39;;;;;;;34.17;21.00;;;;;;;0.10;100.00;103296.53;4964109;28;20527;-76
2022/01/11 10:18:06;;;;;;;32.70;21.60;;;;;;;0.11;100.00;103274.47;4982504;28;20518;-76
2022/01/11 10:20:35;;;;;;;35.97;20.93;;;;;;;0.19;100.00;103290.81;4968967;28;20476;-76
2022/01/11 10:23:07;;;;;;;34.13;21.03;;;;;;;-0.40;100.00;103198.59;4973890;28;20444;-75
2022/01/11 10:25:43;;;;;;;33.97;20.83;;;;;;;0.40;100.00;103310.06;4966124;28;20444;-76
2022/01/11 10:28:08;;;;;;;31.20;19.80;;;;;;;-0.24;100.00;103186.41;4970359;28;20992;-79
2022/01/11 10:30:36;;;;;;;31.77;20.00;;;;;;;-0.13;100.00;103223.69;4977266;28;20563;-77
2022/01/11 10:33:06;;;;;;;37.10;20.60;;;;;;;0.22;100.00;103274.81;4979087;28;20269;-77
2022/01/11 10:35:42;;;;;;;34.40;20.13;;;;;;;0.15;100.00;103276.06;4972864;28;20440;-76
2022/01/11 10:38:10;;;;;;;32.13;19.77;;;;;;;0.31;100.00;103297.31;4976238;28;20554;-76
2022/01/11 10:40:44;;;;;;;35.60;20.93;;;;;;;0.39;100.00;103315.44;4979142;28;21010;-77
2022/01/11 10:43:12;;;;;;;32.00;19.17;;;;;;;0.43;100.00;103314.34;4978482;28;20435;-77
2022/01/11 10:45:41;;;;;;;32.50;18.87;;;;;;;0.53;100.00;103309.50;4974243;28;20616;-76
2022/01/11 10:48:16;;;;;;;34.77;20.77;;;;;;;0.43;100.00;103309.06;4969304;28;21408;-77
2022/01/11 10:50:42;;;;;;;34.27;19.60;;;;;;;0.45;100.00;103299.31;4974160;28;20428;-78
2022/01/11 10:53:14;;;;;;;30.67;19.40;;;;;;;0.39;100.00;103295.16;4971877;28;20787;-77
2022/01/11 10:55:40;;;;;;;32.50;18.90;;;;;;;0.42;100.00;103299.44;4976458;28;20519;-77
2022/01/11 10:58:08;;;;;;;26.83;16.57;;;;;;;0.24;100.00;103268.66;4962908;28;20558;-76
2022/01/11 11:00:40;;;;;;;33.40;20.13;;;;;;;0.58;100.00;103296.91;4966090;28;20479;-77
2022/01/11 11:03:12;;;;;;;26.20;17.37;;;;;;;0.71;100.00;103307.78;4967914;28;20511;-76